sensor_id;sensor_type;location;lat;lon;timestamp;pressure;altitude;pressure_sealevel;temperature;humidity
39411;BME280;26579;43.238;23.124;2023-11-18T00:01:05;96308.81;;;10.19;79.81
39411;BME280;26579;43.238;23.124;2023-11-18T00:03:31;96300.75;;;10.13;79.93
39411;BME280;26579;43.238;23.124;2023-11-18T00:05:56;96288.84;;;10.10;79.84
39411;BME280;26579;43.238;23.124;2023-11-18T00:08:22;96277.47;;;10.11;79.68
39411;BME280;26579;43.238;23.124;2023-11-18T00:10:48;96272.69;;;10.07;80.29
39411;BME280;26579;43.238;23.124;2023-11-18T00:13:13;96266.28;;;10.01;80.24
39411;BME280;26579;43.238;23.124;2023-11-18T00:15:39;96271.34;;;9.93;80.36
39411;BME280;26579;43.238;23.124;2023-11-18T00:18:05;96270.78;;;9.99;80.26
39411;BME280;26579;43.238;23.124;2023-11-18T00:20:30;96276.78;;;10.00;80.64
39411;BME280;26579;43.238;23.124;2023-11-18T00:22:56;96262.97;;;9.99;80.21
39411;BME280;26579;43.238;23.124;2023-11-18T00:25:22;96273.78;;;10.04;80.60
39411;BME280;26579;43.238;23.124;2023-11-18T00:27:48;96279.78;;;10.14;80.24
39411;BME280;26579;43.238;23.124;2023-11-18T00:30:15;96282.13;;;10.17;79.81
39411;BME280;26579;43.238;23.124;2023-11-18T00:32:40;96280.06;;;10.11;79.87
39411;BME280;26579;43.238;23.124;2023-11-18T00:35:06;96274.75;;;10.13;80.22
39411;BME280;26579;43.238;23.124;2023-11-18T00:37:32;96266.50;;;10.17;79.73
39411;BME280;26579;43.238;23.124;2023-11-18T00:39:58;96269.78;;;10.19;79.39
39411;BME280;26579;43.238;23.124;2023-11-18T00:42:24;96259.13;;;10.23;78.39
39411;BME280;26579;43.238;23.124;2023-11-18T00:44:50;96253.63;;;10.26;78.14
39411;BME280;26579;43.238;23.124;2023-11-18T00:47:15;96234.88;;;10.22;77.97
39411;BME280;26579;43.238;23.124;2023-11-18T00:49:41;96241.59;;;10.25;78.27
39411;BME280;26579;43.238;23.124;2023-11-18T00:52:07;96229.00;;;10.20;77.71
39411;BME280;26579;43.238;23.124;2023-11-18T00:54:32;96242.53;;;10.24;76.71
39411;BME280;26579;43.238;23.124;2023-11-18T00:56:58;96249.56;;;10.13;75.07
39411;BME280;26579;43.238;23.124;2023-11-18T00:59:24;96257.91;;;10.27;75.01
39411;BME280;26579;43.238;23.124;2023-11-18T01:01:49;96265.00;;;10.25;74.66
39411;BME280;26579;43.238;23.124;2023-11-18T01:04:15;96268.84;;;10.11;74.61
39411;BME280;26579;43.238;23.124;2023-11-18T01:06:42;96278.28;;;10.12;75.28
39411;BME280;26579;43.238;23.124;2023-11-18T01:09:08;96272.00;;;10.05;75.99
39411;BME280;26579;43.238;23.124;2023-11-18T01:11:34;96273.38;;;10.09;75.96
39411;BME280;26579;43.238;23.124;2023-11-18T01:14:00;96278.03;;;10.05;75.88
39411;BME280;26579;43.238;23.124;2023-11-18T01:16:25;96278.59;;;9.99;74.94
39411;BME280;26579;43.238;23.124;2023-11-18T01:18:51;96263.38;;;9.94;75.56
39411;BME280;26579;43.238;23.124;2023-11-18T01:21:17;96252.69;;;9.97;72.12
39411;BME280;26579;43.238;23.124;2023-11-18T01:23:42;96255.31;;;9.97;71.87
39411;BME280;26579;43.238;23.124;2023-11-18T01:26:08;96260.25;;;10.01;71.21
39411;BME280;26579;43.238;23.124;2023-11-18T01:28:34;96267.75;;;9.94;73.28
39411;BME280;26579;43.238;23.124;2023-11-18T01:31:00;96249.84;;;9.71;74.35
39411;BME280;26579;43.238;23.124;2023-11-18T01:33:25;96265.19;;;9.84;74.46
39411;BME280;26579;43.238;23.124;2023-11-18T01:35:51;96270.13;;;9.78;74.22
39411;BME280;26579;43.238;23.124;2023-11-18T01:38:17;96266.28;;;9.72;74.02
39411;BME280;26579;43.238;23.124;2023-11-18T01:40:44;96280.63;;;9.76;74.29
39411;BME280;26579;43.238;23.124;2023-11-18T01:43:09;96288.44;;;9.76;72.69
39411;BME280;26579;43.238;23.124;2023-11-18T01:45:35;96303.50;;;9.72;71.39
39411;BME280;26579;43.238;23.124;2023-11-18T01:48:00;96289.66;;;9.52;71.03
39411;BME280;26579;43.238;23.124;2023-11-18T01:50:26;96305.94;;;9.55;71.98
39411;BME280;26579;43.238;23.124;2023-11-18T01:52:52;96303.03;;;9.48;72.27
39411;BME280;26579;43.238;23.124;2023-11-18T01:55:17;96305.06;;;9.35;73.03
39411;BME280;26579;43.238;23.124;2023-11-18T01:57:43;96307.38;;;9.28;73.45
39411;BME280;26579;43.238;23.124;2023-11-18T02:00:09;96312.06;;;9.34;73.33
39411;BME280;26579;43.238;23.124;2023-11-18T02:02:38;96312.59;;;9.38;73.51
39411;BME280;26579;43.238;23.124;2023-11-18T02:05:04;96313.56;;;9.46;72.88
39411;BME280;26579;43.238;23.124;2023-11-18T02:07:30;96302.06;;;9.39;73.22
39411;BME280;26579;43.238;23.124;2023-11-18T02:09:56;96314.53;;;9.45;73.91
39411;BME280;26579;43.238;23.124;2023-11-18T02:12:40;96313.69;;;9.35;72.83
39411;BME280;26579;43.238;23.124;2023-11-18T02:15:07;96307.66;;;9.35;72.01
39411;BME280;26579;43.238;23.124;2023-11-18T02:17:34;96307.94;;;9.32;72.85
39411;BME280;26579;43.238;23.124;2023-11-18T02:20:02;96315.31;;;9.26;70.93
39411;BME280;26579;43.238;23.124;2023-11-18T02:22:28;96318.16;;;9.23;72.92
39411;BME280;26579;43.238;23.124;2023-11-18T02:24:55;96312.38;;;9.10;73.70
39411;BME280;26579;43.238;23.124;2023-11-18T02:27:20;96315.22;;;9.07;73.90
39411;BME280;26579;43.238;23.124;2023-11-18T02:29:46;96309.28;;;9.16;74.40
39411;BME280;26579;43.238;23.124;2023-11-18T02:32:20;96305.41;;;9.11;75.21
39411;BME280;26579;43.238;23.124;2023-11-18T02:34:58;96296.50;;;9.03;75.16
39411;BME280;26579;43.238;23.124;2023-11-18T02:37:27;96304.47;;;9.12;74.95
39411;BME280;26579;43.238;23.124;2023-11-18T02:39:58;96290.09;;;9.07;75.05
39411;BME280;26579;43.238;23.124;2023-11-18T02:42:26;96296.78;;;9.10;74.40
39411;BME280;26579;43.238;23.124;2023-11-18T02:44:52;96291.72;;;8.99;74.16
39411;BME280;26579;43.238;23.124;2023-11-18T02:47:19;96293.72;;;8.95;74.63
39411;BME280;26579;43.238;23.124;2023-11-18T02:49:44;96303.84;;;8.98;74.02
39411;BME280;26579;43.238;23.124;2023-11-18T02:52:10;96289.06;;;8.89;74.20
39411;BME280;26579;43.238;23.124;2023-11-18T02:54:36;96298.09;;;8.85;74.31
39411;BME280;26579;43.238;23.124;2023-11-18T02:57:01;96295.75;;;8.82;74.74
39411;BME280;26579;43.238;23.124;2023-11-18T02:59:28;96296.94;;;8.78;75.22
39411;BME280;26579;43.238;23.124;2023-11-18T03:01:54;96300.94;;;8.82;75.15
39411;BME280;26579;43.238;23.124;2023-11-18T03:04:19;96297.75;;;8.78;74.65
39411;BME280;26579;43.238;23.124;2023-11-18T03:06:45;96309.09;;;8.77;74.64
39411;BME280;26579;43.238;23.124;2023-11-18T03:09:10;96307.16;;;8.70;74.75
39411;BME280;26579;43.238;23.124;2023-11-18T03:11:36;96314.81;;;8.71;74.21
39411;BME280;26579;43.238;23.124;2023-11-18T03:14:02;96324.19;;;8.63;74.61
39411;BME280;26579;43.238;23.124;2023-11-18T03:16:27;96315.59;;;8.62;73.79
39411;BME280;26579;43.238;23.124;2023-11-18T03:18:53;96316.47;;;8.51;73.82
39411;BME280;26579;43.238;23.124;2023-11-18T03:21:19;96329.69;;;8.48;74.15
39411;BME280;26579;43.238;23.124;2023-11-18T03:23:44;96338.38;;;8.58;72.86
39411;BME280;26579;43.238;23.124;2023-11-18T03:26:10;96334.53;;;8.53;73.67
39411;BME280;26579;43.238;23.124;2023-11-18T03:28:40;96332.03;;;8.51;73.08
39411;BME280;26579;43.238;23.124;2023-11-18T03:31:06;96331.47;;;8.48;71.54
39411;BME280;26579;43.238;23.124;2023-11-18T03:33:32;96341.84;;;8.48;71.90
39411;BME280;26579;43.238;23.124;2023-11-18T03:35:58;96333.38;;;8.46;71.57
39411;BME280;26579;43.238;23.124;2023-11-18T03:38:24;96335.16;;;8.45;69.08
39411;BME280;26579;43.238;23.124;2023-11-18T03:40:50;96315.75;;;8.28;70.57
39411;BME280;26579;43.238;23.124;2023-11-18T03:43:16;96315.94;;;8.36;62.13
39411;BME280;26579;43.238;23.124;2023-11-18T03:45:41;96302.41;;;8.33;58.50
39411;BME280;26579;43.238;23.124;2023-11-18T03:48:07;96297.84;;;8.25;57.97
39411;BME280;26579;43.238;23.124;2023-11-18T03:50:34;96293.31;;;8.18;56.94
39411;BME280;26579;43.238;23.124;2023-11-18T03:53:00;96304.38;;;8.20;62.42
39411;BME280;26579;43.238;23.124;2023-11-18T03:55:26;96310.06;;;8.13;65.42
39411;BME280;26579;43.238;23.124;2023-11-18T03:57:52;96318.09;;;8.10;65.93
39411;BME280;26579;43.238;23.124;2023-11-18T04:00:18;96310.00;;;8.04;66.24
39411;BME280;26579;43.238;23.124;2023-11-18T04:02:45;96315.78;;;7.96;67.71
39411;BME280;26579;43.238;23.124;2023-11-18T04:05:10;96316.38;;;8.00;68.41
39411;BME280;26579;43.238;23.124;2023-11-18T04:07:36;96304.28;;;7.89;67.49
39411;BME280;26579;43.238;23.124;2023-11-18T04:10:02;96317.75;;;7.83;69.02
39411;BME280;26579;43.238;23.124;2023-11-18T04:12:28;96322.09;;;7.82;69.52
39411;BME280;26579;43.238;23.124;2023-11-18T04:14:53;96319.38;;;7.84;69.70
39411;BME280;26579;43.238;23.124;2023-11-18T04:17:19;96315.56;;;7.67;70.06
39411;BME280;26579;43.238;23.124;2023-11-18T04:19:45;96317.66;;;7.73;70.47
39411;BME280;26579;43.238;23.124;2023-11-18T04:22:10;96305.66;;;7.72;69.99
39411;BME280;26579;43.238;23.124;2023-11-18T04:24:37;96312.09;;;7.78;70.32
39411;BME280;26579;43.238;23.124;2023-11-18T04:27:02;96310.47;;;7.77;69.06
39411;BME280;26579;43.238;23.124;2023-11-18T04:29:28;96311.00;;;7.59;62.68
39411;BME280;26579;43.238;23.124;2023-11-18T04:31:54;96316.28;;;7.58;68.75
39411;BME280;26579;43.238;23.124;2023-11-18T04:34:19;96315.72;;;7.54;70.43
39411;BME280;26579;43.238;23.124;2023-11-18T04:36:45;96310.88;;;7.61;67.86
39411;BME280;26579;43.238;23.124;2023-11-18T04:39:11;96313.28;;;7.74;69.26
39411;BME280;26579;43.238;23.124;2023-11-18T04:41:37;96311.78;;;7.71;67.30
39411;BME280;26579;43.238;23.124;2023-11-18T04:44:02;96326.03;;;7.77;69.63
39411;BME280;26579;43.238;23.124;2023-11-18T04:46:28;96324.75;;;7.71;68.16
39411;BME280;26579;43.238;23.124;2023-11-18T04:48:54;96336.25;;;7.78;68.51
39411;BME280;26579;43.238;23.124;2023-11-18T04:51:20;96338.84;;;7.78;69.80
39411;BME280;26579;43.238;23.124;2023-11-18T04:53:46;96341.94;;;7.72;69.91
39411;BME280;26579;43.238;23.124;2023-11-18T04:56:12;96339.16;;;7.85;70.23
39411;BME280;26579;43.238;23.124;2023-11-18T04:58:38;96336.94;;;7.91;71.39
39411;BME280;26579;43.238;23.124;2023-11-18T05:01:04;96339.38;;;7.93;72.04
39411;BME280;26579;43.238;23.124;2023-11-18T05:03:29;96326.38;;;8.04;71.46
39411;BME280;26579;43.238;23.124;2023-11-18T05:05:55;96332.38;;;8.05;71.31
39411;BME280;26579;43.238;23.124;2023-11-18T05:08:21;96331.19;;;8.09;71.84
39411;BME280;26579;43.238;23.124;2023-11-18T05:10:48;96319.09;;;7.98;69.67
39411;BME280;26579;43.238;23.124;2023-11-18T05:13:14;96325.72;;;7.91;70.40
39411;BME280;26579;43.238;23.124;2023-11-18T05:15:40;96334.09;;;7.94;71.52
39411;BME280;26579;43.238;23.124;2023-11-18T05:18:06;96329.56;;;7.97;71.50
39411;BME280;26579;43.238;23.124;2023-11-18T05:20:31;96345.72;;;8.00;71.35
39411;BME280;26579;43.238;23.124;2023-11-18T05:22:57;96338.31;;;7.96;66.65
39411;BME280;26579;43.238;23.124;2023-11-18T05:25:22;96334.09;;;7.94;61.81
39411;BME280;26579;43.238;23.124;2023-11-18T05:27:48;96341.84;;;7.94;61.05
39411;BME280;26579;43.238;23.124;2023-11-18T05:30:14;96337.50;;;7.95;65.68
39411;BME280;26579;43.238;23.124;2023-11-18T05:32:39;96346.66;;;7.99;67.48
39411;BME280;26579;43.238;23.124;2023-11-18T05:35:05;96323.47;;;7.98;60.46
39411;BME280;26579;43.238;23.124;2023-11-18T05:37:31;96315.94;;;7.94;62.61
39411;BME280;26579;43.238;23.124;2023-11-18T05:39:57;96322.16;;;8.03;65.01
39411;BME280;26579;43.238;23.124;2023-11-18T05:42:22;96316.56;;;8.08;54.53
39411;BME280;26579;43.238;23.124;2023-11-18T05:44:48;96307.97;;;8.07;58.65
39411;BME280;26579;43.238;23.124;2023-11-18T05:47:13;96322.78;;;8.16;53.06
39411;BME280;26579;43.238;23.124;2023-11-18T05:49:39;96322.78;;;8.16;61.30
39411;BME280;26579;43.238;23.124;2023-11-18T05:52:05;96327.50;;;8.11;63.00
39411;BME280;26579;43.238;23.124;2023-11-18T05:54:31;96322.22;;;8.13;66.16
39411;BME280;26579;43.238;23.124;2023-11-18T05:56:56;96320.41;;;7.92;60.59
39411;BME280;26579;43.238;23.124;2023-11-18T05:59:22;96306.19;;;7.87;63.30
39411;BME280;26579;43.238;23.124;2023-11-18T06:01:48;96336.50;;;8.07;59.95
39411;BME280;26579;43.238;23.124;2023-11-18T06:04:14;96320.97;;;7.96;61.84
39411;BME280;26579;43.238;23.124;2023-11-18T06:06:39;96340.72;;;8.08;59.81
39411;BME280;26579;43.238;23.124;2023-11-18T06:09:05;96357.69;;;8.12;58.75
39411;BME280;26579;43.238;23.124;2023-11-18T06:11:31;96331.53;;;7.40;60.53
39411;BME280;26579;43.238;23.124;2023-11-18T06:13:57;96340.66;;;7.66;63.35
39411;BME280;26579;43.238;23.124;2023-11-18T06:16:24;96347.09;;;7.72;64.30
39411;BME280;26579;43.238;23.124;2023-11-18T06:18:55;96346.25;;;7.83;66.25
39411;BME280;26579;43.238;23.124;2023-11-18T06:21:23;96355.66;;;7.84;66.07
39411;BME280;26579;43.238;23.124;2023-11-18T06:23:49;96356.72;;;7.81;67.10
39411;BME280;26579;43.238;23.124;2023-11-18T06:26:15;96355.75;;;7.93;66.31
39411;BME280;26579;43.238;23.124;2023-11-18T06:28:42;96350.06;;;8.00;66.30
39411;BME280;26579;43.238;23.124;2023-11-18T06:31:08;96360.03;;;8.15;66.96
39411;BME280;26579;43.238;23.124;2023-11-18T06:33:52;96350.44;;;8.27;63.70
39411;BME280;26579;43.238;23.124;2023-11-18T06:36:18;96353.00;;;8.06;54.54
39411;BME280;26579;43.238;23.124;2023-11-18T06:38:45;96345.22;;;8.06;57.45
39411;BME280;26579;43.238;23.124;2023-11-18T06:41:12;96373.31;;;8.22;61.35
39411;BME280;26579;43.238;23.124;2023-11-18T06:43:39;96356.88;;;8.33;53.77
39411;BME280;26579;43.238;23.124;2023-11-18T06:46:05;96364.06;;;8.41;51.76
39411;BME280;26579;43.238;23.124;2023-11-18T06:48:33;96369.03;;;8.32;57.37
39411;BME280;26579;43.238;23.124;2023-11-18T06:50:58;96363.25;;;8.29;54.39
39411;BME280;26579;43.238;23.124;2023-11-18T06:53:24;96381.53;;;8.38;57.66
39411;BME280;26579;43.238;23.124;2023-11-18T06:55:49;96373.97;;;8.35;55.32
39411;BME280;26579;43.238;23.124;2023-11-18T06:58:15;96384.06;;;8.50;60.10
39411;BME280;26579;43.238;23.124;2023-11-18T07:00:41;96397.22;;;8.58;52.30
39411;BME280;26579;43.238;23.124;2023-11-18T07:03:06;96383.13;;;8.51;51.26
39411;BME280;26579;43.238;23.124;2023-11-18T07:05:32;96375.69;;;8.46;55.62
39411;BME280;26579;43.238;23.124;2023-11-18T07:07:57;96381.22;;;8.53;55.77
39411;BME280;26579;43.238;23.124;2023-11-18T07:10:23;96382.09;;;8.42;50.18
39411;BME280;26579;43.238;23.124;2023-11-18T07:12:49;96375.84;;;8.45;49.70
39411;BME280;26579;43.238;23.124;2023-11-18T07:15:15;96365.31;;;8.46;48.09
39411;BME280;26579;43.238;23.124;2023-11-18T07:17:40;96366.97;;;8.47;46.24
39411;BME280;26579;43.238;23.124;2023-11-18T07:20:06;96374.50;;;8.50;53.31
39411;BME280;26579;43.238;23.124;2023-11-18T07:22:33;96365.22;;;8.48;49.88
39411;BME280;26579;43.238;23.124;2023-11-18T07:24:58;96368.00;;;8.56;55.25
39411;BME280;26579;43.238;23.124;2023-11-18T07:27:24;96386.47;;;8.63;51.49
39411;BME280;26579;43.238;23.124;2023-11-18T07:29:50;96376.34;;;8.59;45.36
39411;BME280;26579;43.238;23.124;2023-11-18T07:32:15;96373.50;;;8.42;47.16
39411;BME280;26579;43.238;23.124;2023-11-18T07:34:41;96376.72;;;8.23;45.59
39411;BME280;26579;43.238;23.124;2023-11-18T07:37:07;96379.75;;;8.39;46.09
39411;BME280;26579;43.238;23.124;2023-11-18T07:39:32;96388.25;;;8.41;46.35
39411;BME280;26579;43.238;23.124;2023-11-18T07:41:58;96377.09;;;8.50;45.78
39411;BME280;26579;43.238;23.124;2023-11-18T07:44:28;96361.75;;;8.58;43.77
39411;BME280;26579;43.238;23.124;2023-11-18T07:46:53;96369.38;;;8.60;43.88
39411;BME280;26579;43.238;23.124;2023-11-18T07:49:19;96366.66;;;8.61;44.57
39411;BME280;26579;43.238;23.124;2023-11-18T07:51:44;96353.81;;;8.60;44.71
39411;BME280;26579;43.238;23.124;2023-11-18T07:54:10;96364.50;;;8.67;43.30
39411;BME280;26579;43.238;23.124;2023-11-18T07:56:36;96376.09;;;8.63;45.33
39411;BME280;26579;43.238;23.124;2023-11-18T07:59:02;96373.84;;;8.58;44.59
39411;BME280;26579;43.238;23.124;2023-11-18T08:01:27;96369.53;;;8.58;47.89
39411;BME280;26579;43.238;23.124;2023-11-18T08:03:53;96361.28;;;8.53;45.34
39411;BME280;26579;43.238;23.124;2023-11-18T08:06:19;96369.53;;;8.58;44.16
39411;BME280;26579;43.238;23.124;2023-11-18T08:08:44;96379.50;;;8.63;43.78
39411;BME280;26579;43.238;23.124;2023-11-18T08:11:10;96376.84;;;8.74;43.15
39411;BME280;26579;43.238;23.124;2023-11-18T08:13:36;96385.88;;;8.80;43.12
39411;BME280;26579;43.238;23.124;2023-11-18T08:16:02;96372.88;;;8.70;44.45
39411;BME280;26579;43.238;23.124;2023-11-18T08:18:28;96381.47;;;8.71;43.71
39411;BME280;26579;43.238;23.124;2023-11-18T08:20:53;96363.38;;;8.59;42.94
39411;BME280;26579;43.238;23.124;2023-11-18T08:23:19;96377.97;;;8.60;46.69
39411;BME280;26579;43.238;23.124;2023-11-18T08:25:45;96373.50;;;8.63;43.63
39411;BME280;26579;43.238;23.124;2023-11-18T08:28:10;96381.31;;;8.72;43.87
39411;BME280;26579;43.238;23.124;2023-11-18T08:30:39;96395.06;;;8.84;43.69
39411;BME280;26579;43.238;23.124;2023-11-18T08:33:05;96402.28;;;8.80;42.46
39411;BME280;26579;43.238;23.124;2023-11-18T08:35:30;96408.88;;;8.84;42.30
39411;BME280;26579;43.238;23.124;2023-11-18T08:37:56;96381.22;;;8.53;42.81
39411;BME280;26579;43.238;23.124;2023-11-18T08:40:22;96398.63;;;8.62;42.86
39411;BME280;26579;43.238;23.124;2023-11-18T08:42:49;96413.50;;;8.60;42.42
39411;BME280;26579;43.238;23.124;2023-11-18T08:45:23;96403.38;;;8.57;42.66
39411;BME280;26579;43.238;23.124;2023-11-18T08:47:49;96409.63;;;8.54;43.45
39411;BME280;26579;43.238;23.124;2023-11-18T08:50:15;96395.41;;;8.37;43.13
39411;BME280;26579;43.238;23.124;2023-11-18T08:52:41;96396.59;;;8.45;43.21
39411;BME280;26579;43.238;23.124;2023-11-18T08:55:07;96411.72;;;8.60;42.50
39411;BME280;26579;43.238;23.124;2023-11-18T08:57:34;96392.09;;;8.68;43.44
39411;BME280;26579;43.238;23.124;2023-11-18T09:00:00;96380.06;;;8.67;42.57
39411;BME280;26579;43.238;23.124;2023-11-18T09:02:25;96386.78;;;8.69;42.83
39411;BME280;26579;43.238;23.124;2023-11-18T09:04:51;96393.47;;;8.72;41.90
39411;BME280;26579;43.238;23.124;2023-11-18T09:07:17;96387.78;;;8.78;42.04
39411;BME280;26579;43.238;23.124;2023-11-18T09:09:43;96401.09;;;8.84;42.45
39411;BME280;26579;43.238;23.124;2023-11-18T09:12:08;96390.50;;;8.97;42.67
39411;BME280;26579;43.238;23.124;2023-11-18T09:14:37;96376.03;;;9.04;42.17
39411;BME280;26579;43.238;23.124;2023-11-18T09:17:02;96359.91;;;9.01;41.49
39411;BME280;26579;43.238;23.124;2023-11-18T09:19:28;96390.97;;;9.12;40.95
39411;BME280;26579;43.238;23.124;2023-11-18T09:21:54;96397.44;;;9.18;41.78
39411;BME280;26579;43.238;23.124;2023-11-18T09:24:20;96385.25;;;9.18;41.07
39411;BME280;26579;43.238;23.124;2023-11-18T09:26:46;96375.84;;;9.27;40.64
39411;BME280;26579;43.238;23.124;2023-11-18T09:29:12;96388.03;;;9.26;41.33
39411;BME280;26579;43.238;23.124;2023-11-18T09:31:37;96388.28;;;9.23;40.73
39411;BME280;26579;43.238;23.124;2023-11-18T09:34:03;96379.94;;;9.20;40.76
39411;BME280;26579;43.238;23.124;2023-11-18T09:36:29;96383.63;;;9.17;40.62
39411;BME280;26579;43.238;23.124;2023-11-18T09:38:55;96396.69;;;9.06;40.45
39411;BME280;26579;43.238;23.124;2023-11-18T09:41:22;96378.63;;;9.04;41.44
39411;BME280;26579;43.238;23.124;2023-11-18T09:43:48;96382.44;;;9.00;39.91
39411;BME280;26579;43.238;23.124;2023-11-18T09:46:24;96394.16;;;8.95;41.33
39411;BME280;26579;43.238;23.124;2023-11-18T09:48:51;96387.19;;;8.95;40.96
39411;BME280;26579;43.238;23.124;2023-11-18T09:51:24;96387.59;;;8.91;40.44
39411;BME280;26579;43.238;23.124;2023-11-18T09:53:52;96373.09;;;8.88;40.74
39411;BME280;26579;43.238;23.124;2023-11-18T09:59:11;96394.31;;;8.93;40.35
39411;BME280;26579;43.238;23.124;2023-11-18T10:01:41;96394.94;;;8.86;40.95
39411;BME280;26579;43.238;23.124;2023-11-18T10:04:07;96383.75;;;8.85;40.62
39411;BME280;26579;43.238;23.124;2023-11-18T10:06:36;96402.78;;;8.95;39.79
39411;BME280;26579;43.238;23.124;2023-11-18T10:09:03;96402.91;;;8.94;41.61
39411;BME280;26579;43.238;23.124;2023-11-18T10:11:28;96394.44;;;8.92;40.43
39411;BME280;26579;43.238;23.124;2023-11-18T10:13:54;96390.38;;;8.78;39.54
39411;BME280;26579;43.238;23.124;2023-11-18T10:16:20;96392.94;;;8.68;40.56
39411;BME280;26579;43.238;23.124;2023-11-18T10:18:45;96404.78;;;8.61;40.83
39411;BME280;26579;43.238;23.124;2023-11-18T10:21:12;96416.38;;;8.67;40.83
39411;BME280;26579;43.238;23.124;2023-11-18T10:23:38;96403.41;;;8.67;40.81
39411;BME280;26579;43.238;23.124;2023-11-18T10:26:04;96410.28;;;8.68;41.04
39411;BME280;26579;43.238;23.124;2023-11-18T10:28:34;96413.19;;;8.74;41.02
39411;BME280;26579;43.238;23.124;2023-11-18T10:31:05;96407.47;;;8.80;41.39
39411;BME280;26579;43.238;23.124;2023-11-18T10:33:41;96426.72;;;8.78;40.17
39411;BME280;26579;43.238;23.124;2023-11-18T10:36:17;96396.59;;;8.66;41.17
39411;BME280;26579;43.238;23.124;2023-11-18T10:38:43;96392.16;;;8.56;40.80
39411;BME280;26579;43.238;23.124;2023-11-18T10:41:09;96373.09;;;8.46;41.40
39411;BME280;26579;43.238;23.124;2023-11-18T10:43:35;96405.19;;;8.45;41.66
39411;BME280;26579;43.238;23.124;2023-11-18T10:46:05;96393.19;;;8.44;41.44
39411;BME280;26579;43.238;23.124;2023-11-18T10:48:31;96388.81;;;8.45;41.02
39411;BME280;26579;43.238;23.124;2023-11-18T10:50:56;96381.72;;;8.47;41.10
39411;BME280;26579;43.238;23.124;2023-11-18T10:53:22;96382.84;;;8.54;40.80
39411;BME280;26579;43.238;23.124;2023-11-18T10:55:48;96379.00;;;8.48;40.16
39411;BME280;26579;43.238;23.124;2023-11-18T10:58:13;96364.00;;;8.52;41.11
39411;BME280;26579;43.238;23.124;2023-11-18T11:00:52;96362.47;;;8.49;40.27
39411;BME280;26579;43.238;23.124;2023-11-18T11:03:18;96371.34;;;8.47;40.94
39411;BME280;26579;43.238;23.124;2023-11-18T11:05:44;96384.19;;;8.37;41.03
39411;BME280;26579;43.238;23.124;2023-11-18T11:08:16;96349.34;;;8.30;40.71
39411;BME280;26579;43.238;23.124;2023-11-18T11:10:43;96375.94;;;8.43;40.62
39411;BME280;26579;43.238;23.124;2023-11-18T11:13:09;96371.34;;;8.47;40.68
39411;BME280;26579;43.238;23.124;2023-11-18T11:15:40;96373.19;;;8.56;40.43
39411;BME280;26579;43.238;23.124;2023-11-18T11:18:08;96355.13;;;8.54;40.92
39411;BME280;26579;43.238;23.124;2023-11-18T11:20:42;96324.97;;;8.53;40.15
39411;BME280;26579;43.238;23.124;2023-11-18T11:25:50;96344.56;;;8.67;40.04
39411;BME280;26579;43.238;23.124;2023-11-18T11:28:21;96346.78;;;8.72;40.23
39411;BME280;26579;43.238;23.124;2023-11-18T11:33:33;96335.34;;;8.84;40.15
39411;BME280;26579;43.238;23.124;2023-11-18T11:36:04;96327.47;;;8.95;39.62
39411;BME280;26579;43.238;23.124;2023-11-18T11:38:32;96326.81;;;8.93;39.26
39411;BME280;26579;43.238;23.124;2023-11-18T11:40:58;96351.38;;;8.89;38.92
39411;BME280;26579;43.238;23.124;2023-11-18T11:43:26;96346.44;;;8.86;39.44
39411;BME280;26579;43.238;23.124;2023-11-18T11:45:52;96353.66;;;8.82;39.29
39411;BME280;26579;43.238;23.124;2023-11-18T11:48:18;96360.22;;;8.87;38.88
39411;BME280;26579;43.238;23.124;2023-11-18T11:51:03;96362.91;;;8.96;40.03
39411;BME280;26579;43.238;23.124;2023-11-18T11:53:35;96358.63;;;8.95;39.57
39411;BME280;26579;43.238;23.124;2023-11-18T11:56:02;96351.66;;;8.96;39.32
39411;BME280;26579;43.238;23.124;2023-11-18T11:58:33;96385.34;;;9.07;38.76
39411;BME280;26579;43.238;23.124;2023-11-18T12:01:47;96361.69;;;9.10;38.11
39411;BME280;26579;43.238;23.124;2023-11-18T12:04:09;96393.88;;;9.19;38.19
39411;BME280;26579;43.238;23.124;2023-11-18T12:06:41;96392.59;;;9.13;38.48
39411;BME280;26579;43.238;23.124;2023-11-18T12:09:08;96400.16;;;9.16;38.93
39411;BME280;26579;43.238;23.124;2023-11-18T12:11:37;96383.81;;;9.04;39.06
39411;BME280;26579;43.238;23.124;2023-11-18T12:14:05;96397.22;;;9.00;39.12
39411;BME280;26579;43.238;23.124;2023-11-18T12:16:59;96392.31;;;9.06;38.46
39411;BME280;26579;43.238;23.124;2023-11-18T12:19:32;96401.31;;;9.02;39.02
39411;BME280;26579;43.238;23.124;2023-11-18T12:21:58;96398.31;;;9.07;39.33
39411;BME280;26579;43.238;23.124;2023-11-18T12:24:23;96412.72;;;9.11;38.96
39411;BME280;26579;43.238;23.124;2023-11-18T12:26:49;96410.56;;;8.95;39.45
39411;BME280;26579;43.238;23.124;2023-11-18T12:29:33;96423.81;;;8.92;39.29
39411;BME280;26579;43.238;23.124;2023-11-18T12:31:59;96419.56;;;8.91;39.43
39411;BME280;26579;43.238;23.124;2023-11-18T12:34:49;96413.22;;;8.84;39.77
39411;BME280;26579;43.238;23.124;2023-11-18T12:43:08;96427.53;;;8.78;39.89
39411;BME280;26579;43.238;23.124;2023-11-18T12:45:50;96425.06;;;8.77;39.74
39411;BME280;26579;43.238;23.124;2023-11-18T12:48:24;96433.13;;;8.74;40.14
39411;BME280;26579;43.238;23.124;2023-11-18T12:50:55;96435.31;;;8.57;40.44
39411;BME280;26579;43.238;23.124;2023-11-18T12:53:23;96430.63;;;8.51;41.21
39411;BME280;26579;43.238;23.124;2023-11-18T12:55:48;96432.78;;;8.46;40.78
39411;BME280;26579;43.238;23.124;2023-11-18T12:58:14;96432.28;;;8.52;40.70
39411;BME280;26579;43.238;23.124;2023-11-18T13:00:41;96447.16;;;8.50;40.72
39411;BME280;26579;43.238;23.124;2023-11-18T13:03:06;96440.31;;;8.49;41.66
39411;BME280;26579;43.238;23.124;2023-11-18T13:05:32;96429.25;;;8.36;41.51
39411;BME280;26579;43.238;23.124;2023-11-18T13:07:58;96440.94;;;8.30;41.65
39411;BME280;26579;43.238;23.124;2023-11-18T13:10:24;96446.75;;;8.23;41.48
39411;BME280;26579;43.238;23.124;2023-11-18T13:12:50;96467.31;;;8.14;42.13